sensor_id;sensor_type;location;lat;lon;timestamp;pressure;altitude;pressure_sealevel;temperature;humidity
5877;BME280;2964;42.144;24.730;2022-09-09T00:01:40;146046.31;;;18.04;92.12
5877;BME280;2964;42.144;24.730;2022-09-09T00:04:13;146075.34;;;18.16;91.61
5877;BME280;2964;42.144;24.730;2022-09-09T00:06:45;146057.66;;;18.08;92.69
5877;BME280;2964;42.144;24.730;2022-09-09T00:09:15;146013.44;;;17.90;93.13
5877;BME280;2964;42.144;24.730;2022-09-09T00:11:48;146066.50;;;18.12;92.44
5877;BME280;2964;42.144;24.730;2022-09-09T00:14:22;146027.31;;;17.96;92.86
5877;BME280;2964;42.144;24.730;2022-09-09T00:16:54;146052.63;;;18.06;93.06
5877;BME280;2964;42.144;24.730;2022-09-09T00:19:24;146005.88;;;17.87;93.36
5877;BME280;2964;42.144;24.730;2022-09-09T00:22:03;145994.44;;;17.83;93.97
5877;BME280;2964;42.144;24.730;2022-09-09T00:24:42;146005.88;;;17.87;94.50
5877;BME280;2964;42.144;24.730;2022-09-09T00:27:17;145998.25;;;17.84;93.84
5877;BME280;2964;42.144;24.730;2022-09-09T00:29:52;146023.56;;;17.94;93.86
5877;BME280;2964;42.144;24.730;2022-09-09T00:32:20;146063.97;;;18.11;93.04
5877;BME280;2964;42.144;24.730;2022-09-09T00:34:49;146096.84;;;18.24;91.76
5877;BME280;2964;42.144;24.730;2022-09-09T00:37:18;146113.25;;;18.31;91.53
5877;BME280;2964;42.144;24.730;2022-09-09T00:39:47;146075.34;;;18.16;91.78
5877;BME280;2964;42.144;24.730;2022-09-09T00:42:17;145981.81;;;17.78;92.77
5877;BME280;2964;42.144;24.730;2022-09-09T00:44:53;145976.75;;;17.75;94.08
5877;BME280;2964;42.144;24.730;2022-09-09T00:47:46;145957.81;;;17.68;94.29
5877;BME280;2964;42.144;24.730;2022-09-09T00:50:36;145974.25;;;17.74;94.66
5877;BME280;2964;42.144;24.730;2022-09-09T00:53:18;145967.91;;;17.72;95.09
5877;BME280;2964;42.144;24.730;2022-09-09T00:55:54;145975.50;;;17.75;94.34
5877;BME280;2964;42.144;24.730;2022-09-09T00:58:27;145955.28;;;17.67;94.64
5877;BME280;2964;42.144;24.730;2022-09-09T01:00:57;145954.03;;;17.66;95.29
5877;BME280;2964;42.144;24.730;2022-09-09T01:03:34;145985.59;;;17.79;94.55
5877;BME280;2964;42.144;24.730;2022-09-09T01:06:12;145928.78;;;17.56;95.10
5877;BME280;2964;42.144;24.730;2022-09-09T01:09:11;145983.09;;;17.78;94.18
5877;BME280;2964;42.144;24.730;2022-09-09T01:11:51;145870.69;;;17.32;95.32
5877;BME280;2964;42.144;24.730;2022-09-09T01:14:35;145884.59;;;17.38;96.24
5877;BME280;2964;42.144;24.730;2022-09-09T01:17:10;145884.59;;;17.38;96.31
5877;BME280;2964;42.144;24.730;2022-09-09T01:19:47;145889.63;;;17.40;96.36
5877;BME280;2964;42.144;24.730;2022-09-09T01:22:25;145884.59;;;17.38;97.25
5877;BME280;2964;42.144;24.730;2022-09-09T01:25:18;145898.47;;;17.44;97.20
5877;BME280;2964;42.144;24.730;2022-09-09T01:27:49;145888.38;;;17.40;96.81
5877;BME280;2964;42.144;24.730;2022-09-09T01:30:18;145829.03;;;17.15;97.31
5877;BME280;2964;42.144;24.730;2022-09-09T01:32:46;145921.22;;;17.53;96.34
5877;BME280;2964;42.144;24.730;2022-09-09T01:35:22;145965.41;;;17.71;95.77
5877;BME280;2964;42.144;24.730;2022-09-09T01:37:54;145919.97;;;17.52;95.59
5877;BME280;2964;42.144;24.730;2022-09-09T01:40:21;145904.78;;;17.46;96.36
5877;BME280;2964;42.144;24.730;2022-09-09T01:42:49;145897.22;;;17.43;97.21
5877;BME280;2964;42.144;24.730;2022-09-09T01:45:16;145897.22;;;17.43;98.06
5877;BME280;2964;42.144;24.730;2022-09-09T01:47:44;145887.09;;;17.39;97.70
5877;BME280;2964;42.144;24.730;2022-09-09T01:50:13;145887.09;;;17.39;98.08
5877;BME280;2964;42.144;24.730;2022-09-09T01:52:42;145895.94;;;17.43;97.90
5877;BME280;2964;42.144;24.730;2022-09-09T01:55:10;145923.75;;;17.54;97.19
5877;BME280;2964;42.144;24.730;2022-09-09T01:57:43;145932.53;;;17.58;96.73
5877;BME280;2964;42.144;24.730;2022-09-09T02:00:16;145909.81;;;17.48;96.94
5877;BME280;2964;42.144;24.730;2022-09-09T02:02:48;145902.28;;;17.45;96.88
5877;BME280;2964;42.144;24.730;2022-09-09T02:05:27;145901.03;;;17.45;97.39
5877;BME280;2964;42.144;24.730;2022-09-09T02:08:00;145883.34;;;17.38;97.44
5877;BME280;2964;42.144;24.730;2022-09-09T02:10:33;145880.78;;;17.36;97.76
5877;BME280;2964;42.144;24.730;2022-09-09T02:13:04;145885.84;;;17.39;98.19
5877;BME280;2964;42.144;24.730;2022-09-09T02:15:39;145842.94;;;17.21;98.15
5877;BME280;2964;42.144;24.730;2022-09-09T02:18:09;145860.63;;;17.28;98.25
5877;BME280;2964;42.144;24.730;2022-09-09T02:20:39;145844.19;;;17.22;99.19
5877;BME280;2964;42.144;24.730;2022-09-09T02:23:07;145849.22;;;17.24;98.68
5877;BME280;2964;42.144;24.730;2022-09-09T02:25:36;145836.59;;;17.18;98.63
5877;BME280;2964;42.144;24.730;2022-09-09T02:28:05;145831.53;;;17.16;98.78
5877;BME280;2964;42.144;24.730;2022-09-09T02:30:35;145846.72;;;17.23;98.26
5877;BME280;2964;42.144;24.730;2022-09-09T02:33:04;145870.69;;;17.32;97.86
5877;BME280;2964;42.144;24.730;2022-09-09T02:35:34;145826.50;;;17.14;98.20
5877;BME280;2964;42.144;24.730;2022-09-09T02:38:07;145832.78;;;17.17;99.03
5877;BME280;2964;42.144;24.730;2022-09-09T02:40:35;145820.22;;;17.12;98.84
5877;BME280;2964;42.144;24.730;2022-09-09T02:43:01;145849.22;;;17.24;98.61
5877;BME280;2964;42.144;24.730;2022-09-09T02:45:36;145858.06;;;17.27;98.25
5877;BME280;2964;42.144;24.730;2022-09-09T02:48:14;145846.72;;;17.23;99.04
5877;BME280;2964;42.144;24.730;2022-09-09T02:50:49;145873.19;;;17.33;99.00
5877;BME280;2964;42.144;24.730;2022-09-09T02:53:18;145945.19;;;17.63;96.79
5877;BME280;2964;42.144;24.730;2022-09-09T02:55:47;145888.38;;;17.40;96.83
5877;BME280;2964;42.144;24.730;2022-09-09T02:58:16;145847.97;;;17.23;97.50
5877;BME280;2964;42.144;24.730;2022-09-09T03:00:46;145858.06;;;17.27;97.35
5877;BME280;2964;42.144;24.730;2022-09-09T03:03:13;145873.19;;;17.33;97.66
5877;BME280;2964;42.144;24.730;2022-09-09T03:05:41;145938.88;;;17.60;95.45
5877;BME280;2964;42.144;24.730;2022-09-09T03:08:08;145941.38;;;17.61;95.55
5877;BME280;2964;42.144;24.730;2022-09-09T03:10:35;146000.78;;;17.85;93.70
5877;BME280;2964;42.144;24.730;2022-09-09T03:13:03;146013.44;;;17.90;93.12
5877;BME280;2964;42.144;24.730;2022-09-09T03:15:31;145986.84;;;17.80;91.98
5877;BME280;2964;42.144;24.730;2022-09-09T03:18:00;146028.63;;;17.97;92.33
5877;BME280;2964;42.144;24.730;2022-09-09T03:20:28;145829.03;;;17.15;96.65
5877;BME280;2964;42.144;24.730;2022-09-09T03:22:56;145799.97;;;17.04;97.42
5877;BME280;2964;42.144;24.730;2022-09-09T03:25:23;145760.88;;;16.88;99.20
5877;BME280;2964;42.144;24.730;2022-09-09T03:27:51;145810.06;;;17.08;98.75
5877;BME280;2964;42.144;24.730;2022-09-09T03:30:21;145802.53;;;17.05;98.21
5877;BME280;2964;42.144;24.730;2022-09-09T03:32:48;145859.31;;;17.28;98.16
5877;BME280;2964;42.144;24.730;2022-09-09T03:35:17;145864.38;;;17.30;98.09
5877;BME280;2964;42.144;24.730;2022-09-09T03:37:43;145757.09;;;16.86;99.08
5877;BME280;2964;42.144;24.730;2022-09-09T03:40:11;145810.06;;;17.08;99.08
5877;BME280;2964;42.144;24.730;2022-09-09T03:42:38;145786.09;;;16.98;98.50
5877;BME280;2964;42.144;24.730;2022-09-09T03:45:07;145727.97;;;16.74;99.13
5877;BME280;2964;42.144;24.730;2022-09-09T03:47:36;145753.28;;;16.85;100.00
5877;BME280;2964;42.144;24.730;2022-09-09T03:50:03;145740.59;;;16.79;100.00
5877;BME280;2964;42.144;24.730;2022-09-09T03:52:35;145822.72;;;17.13;99.35
5877;BME280;2964;42.144;24.730;2022-09-09T03:55:04;145897.22;;;17.43;97.29
5877;BME280;2964;42.144;24.730;2022-09-09T03:57:31;145943.94;;;17.62;96.17
5877;BME280;2964;42.144;24.730;2022-09-09T04:00:00;145887.09;;;17.39;95.77
5877;BME280;2964;42.144;24.730;2022-09-09T04:02:30;145827.75;;;17.15;96.85
5877;BME280;2964;42.144;24.730;2022-09-09T04:04:56;145893.44;;;17.42;96.16
5877;BME280;2964;42.144;24.730;2022-09-09T04:07:23;145912.34;;;17.49;95.16
5877;BME280;2964;42.144;24.730;2022-09-09T04:09:51;145869.47;;;17.32;95.72
5877;BME280;2964;42.144;24.730;2022-09-09T04:12:18;145765.94;;;16.90;98.38
5877;BME280;2964;42.144;24.730;2022-09-09T04:14:45;145688.88;;;16.58;98.54
5877;BME280;2964;42.144;24.730;2022-09-09T04:17:11;145724.25;;;16.73;98.66
5877;BME280;2964;42.144;24.730;2022-09-09T04:19:38;145700.22;;;16.63;100.00
5877;BME280;2964;42.144;24.730;2022-09-09T04:22:05;145764.63;;;16.89;99.40
5877;BME280;2964;42.144;24.730;2022-09-09T04:24:32;145739.38;;;16.79;98.38
5877;BME280;2964;42.144;24.730;2022-09-09T04:27:00;145685.09;;;16.57;99.35
5877;BME280;2964;42.144;24.730;2022-09-09T04:29:27;145705.25;;;16.65;99.44
5877;BME280;2964;42.144;24.730;2022-09-09T04:31:53;145750.75;;;16.84;97.94
5877;BME280;2964;42.144;24.730;2022-09-09T04:34:20;145740.59;;;16.79;96.83
5877;BME280;2964;42.144;24.730;2022-09-09T04:36:47;145743.16;;;16.81;98.56
5877;BME280;2964;42.144;24.730;2022-09-09T04:39:14;145743.16;;;16.81;98.94
5877;BME280;2964;42.144;24.730;2022-09-09T04:41:40;145739.38;;;16.79;99.19
5877;BME280;2964;42.144;24.730;2022-09-09T04:44:11;145802.53;;;17.05;98.62
5877;BME280;2964;42.144;24.730;2022-09-09T04:46:37;145880.78;;;17.36;96.15
5877;BME280;2964;42.144;24.730;2022-09-09T04:49:06;145811.38;;;17.08;96.46
5877;BME280;2964;42.144;24.730;2022-09-09T04:51:33;145821.47;;;17.12;96.67
5877;BME280;2964;42.144;24.730;2022-09-09T04:53:59;145988.16;;;17.80;93.33
5877;BME280;2964;42.144;24.730;2022-09-09T04:56:26;145966.66;;;17.71;92.82
5877;BME280;2964;42.144;24.730;2022-09-09T04:58:53;145749.50;;;16.83;96.64
5877;BME280;2964;42.144;24.730;2022-09-09T05:01:22;145851.78;;;17.25;95.95
5877;BME280;2964;42.144;24.730;2022-09-09T05:03:50;145960.38;;;17.69;93.20
5877;BME280;2964;42.144;24.730;2022-09-09T05:06:19;146005.88;;;17.87;92.33
5877;BME280;2964;42.144;24.730;2022-09-09T05:08:46;146039.97;;;18.01;90.36
5877;BME280;2964;42.144;24.730;2022-09-09T05:11:15;146122.09;;;18.35;89.80
5877;BME280;2964;42.144;24.730;2022-09-09T05:13:42;146405.31;;;19.50;86.46
5877;BME280;2964;42.144;24.730;2022-09-09T05:16:09;146764.75;;;20.95;81.03
5877;BME280;2964;42.144;24.730;2022-09-09T05:18:38;146924.34;;;21.60;76.15
5877;BME280;2964;42.144;24.730;2022-09-09T05:21:05;147125.78;;;22.42;73.17
5877;BME280;2964;42.144;24.730;2022-09-09T05:23:32;147296.94;;;23.11;70.76
5877;BME280;2964;42.144;24.730;2022-09-09T05:26:00;147072.50;;;22.20;71.03
5877;BME280;2964;42.144;24.730;2022-09-09T05:28:27;146915.47;;;21.56;73.41
5877;BME280;2964;42.144;24.730;2022-09-09T05:30:58;146976.25;;;21.81;73.81
5877;BME280;2964;42.144;24.730;2022-09-09T05:33:26;147257.59;;;22.95;70.69
5877;BME280;2964;42.144;24.730;2022-09-09T05:35:59;147727.09;;;24.85;65.17
5877;BME280;2964;42.144;24.730;2022-09-09T05:38:27;147711.88;;;24.79;62.15
5877;BME280;2964;42.144;24.730;2022-09-09T05:40:54;147540.50;;;24.09;65.47
5877;BME280;2964;42.144;24.730;2022-09-09T05:43:21;148015.41;;;26.02;60.28
5877;BME280;2964;42.144;24.730;2022-09-09T05:45:48;148101.78;;;26.36;58.10
5877;BME280;2964;42.144;24.730;2022-09-09T05:48:27;148422.19;;;27.66;53.70
5877;BME280;2964;42.144;24.730;2022-09-09T05:50:55;148091.63;;;26.32;56.98
5877;BME280;2964;42.144;24.730;2022-09-09T05:53:23;148198.41;;;26.75;55.82
5877;BME280;2964;42.144;24.730;2022-09-09T05:55:50;147829.94;;;25.27;61.27
5877;BME280;2964;42.144;24.730;2022-09-09T05:58:17;148178.09;;;26.67;55.83
5877;BME280;2964;42.144;24.730;2022-09-09T06:00:44;147960.75;;;25.79;58.95
5877;BME280;2964;42.144;24.730;2022-09-09T06:03:11;148180.59;;;26.68;57.61
5877;BME280;2964;42.144;24.730;2022-09-09T06:05:38;148048.41;;;26.15;56.41
5877;BME280;2964;42.144;24.730;2022-09-09T06:08:04;148070.03;;;26.24;57.45
5877;BME280;2964;42.144;24.730;2022-09-09T06:10:34;148487.06;;;27.92;52.81
5877;BME280;2964;42.144;24.730;2022-09-09T06:13:01;148671.59;;;28.66;51.10
5877;BME280;2964;42.144;24.730;2022-09-09T06:15:28;149110.94;;;30.44;46.69
5877;BME280;2964;42.144;24.730;2022-09-09T06:17:56;149577.53;;;32.31;41.58
5877;BME280;2964;42.144;24.730;2022-09-09T06:20:22;149802.09;;;33.22;39.17
5877;BME280;2964;42.144;24.730;2022-09-09T06:22:50;149414.28;;;31.66;41.63
5877;BME280;2964;42.144;24.730;2022-09-09T06:25:17;148849.81;;;29.38;46.22
5877;BME280;2964;42.144;24.730;2022-09-09T06:27:49;148137.38;;;26.51;52.20
5877;BME280;2964;42.144;24.730;2022-09-09T06:30:16;148058.56;;;26.19;52.77
5877;BME280;2964;42.144;24.730;2022-09-09T06:32:43;148193.31;;;26.73;52.35
5877;BME280;2964;42.144;24.730;2022-09-09T06:35:10;148209.88;;;26.80;53.08
5877;BME280;2964;42.144;24.730;2022-09-09T06:37:37;148104.34;;;26.37;54.33
5877;BME280;2964;42.144;24.730;2022-09-09T06:40:04;148071.28;;;26.24;54.14
5877;BME280;2964;42.144;24.730;2022-09-09T06:42:32;147568.41;;;24.21;58.80
5877;BME280;2964;42.144;24.730;2022-09-09T06:45:00;147619.16;;;24.41;60.46
5877;BME280;2964;42.144;24.730;2022-09-09T06:47:28;147756.25;;;24.97;58.00
5877;BME280;2964;42.144;24.730;2022-09-09T06:49:55;147647.09;;;24.53;59.68
5877;BME280;2964;42.144;24.730;2022-09-09T06:52:22;147789.25;;;25.10;57.61
5877;BME280;2964;42.144;24.730;2022-09-09T06:54:50;147635.66;;;24.48;58.71
5877;BME280;2964;42.144;24.730;2022-09-09T06:57:16;147572.22;;;24.22;60.63
5877;BME280;2964;42.144;24.730;2022-09-09T06:59:43;147897.22;;;25.54;57.80
5877;BME280;2964;42.144;24.730;2022-09-09T07:02:11;148087.81;;;26.31;55.57
5877;BME280;2964;42.144;24.730;2022-09-09T07:04:38;147616.63;;;24.40;60.79
5877;BME280;2964;42.144;24.730;2022-09-09T07:07:04;147894.72;;;25.53;57.52
5877;BME280;2964;42.144;24.730;2022-09-09T07:09:31;148025.56;;;26.06;55.26
5877;BME280;2964;42.144;24.730;2022-09-09T07:11:58;148216.19;;;26.83;54.45
5877;BME280;2964;42.144;24.730;2022-09-09T07:14:25;148395.47;;;27.55;51.77
5877;BME280;2964;42.144;24.730;2022-09-09T07:16:52;148333.19;;;27.30;51.77
5877;BME280;2964;42.144;24.730;2022-09-09T07:19:20;147995.09;;;25.93;54.93
5877;BME280;2964;42.144;24.730;2022-09-09T07:21:47;148292.47;;;27.13;51.91
5877;BME280;2964;42.144;24.730;2022-09-09T07:24:14;148000.19;;;25.95;54.34
5877;BME280;2964;42.144;24.730;2022-09-09T07:26:41;148453.97;;;27.79;51.13
5877;BME280;2964;42.144;24.730;2022-09-09T07:29:09;148403.13;;;27.58;49.78
5877;BME280;2964;42.144;24.730;2022-09-09T07:31:39;148648.69;;;28.57;49.54
5877;BME280;2964;42.144;24.730;2022-09-09T07:34:06;148674.13;;;28.67;48.99
5877;BME280;2964;42.144;24.730;2022-09-09T07:36:36;148926.16;;;29.69;45.86
5877;BME280;2964;42.144;24.730;2022-09-09T07:39:05;148293.72;;;27.14;51.23
5877;BME280;2964;42.144;24.730;2022-09-09T07:41:34;148090.34;;;26.32;53.87
5877;BME280;2964;42.144;24.730;2022-09-09T07:44:05;148319.16;;;27.24;51.48
5877;BME280;2964;42.144;24.730;2022-09-09T07:46:32;148070.03;;;26.24;53.08
5877;BME280;2964;42.144;24.730;2022-09-09T07:48:59;148009.06;;;25.99;54.60
5877;BME280;2964;42.144;24.730;2022-09-09T07:51:28;148264.50;;;27.02;52.44
5877;BME280;2964;42.144;24.730;2022-09-09T07:53:58;148315.34;;;27.23;52.55
5877;BME280;2964;42.144;24.730;2022-09-09T07:56:26;148132.31;;;26.49;52.99
5877;BME280;2964;42.144;24.730;2022-09-09T07:58:55;147901.06;;;25.55;54.96
5877;BME280;2964;42.144;24.730;2022-09-09T08:01:23;147744.84;;;24.92;55.84
5877;BME280;2964;42.144;24.730;2022-09-09T08:03:55;148143.72;;;26.53;53.86
5877;BME280;2964;42.144;24.730;2022-09-09T08:06:24;148323.00;;;27.26;51.27
5877;BME280;2964;42.144;24.730;2022-09-09T08:08:52;148002.69;;;25.96;55.22
5877;BME280;2964;42.144;24.730;2022-09-09T08:11:22;148148.78;;;26.55;53.25
5877;BME280;2964;42.144;24.730;2022-09-09T08:13:50;148131.00;;;26.48;53.38
5877;BME280;2964;42.144;24.730;2022-09-09T08:16:19;148152.59;;;26.57;52.55
5877;BME280;2964;42.144;24.730;2022-09-09T08:18:46;148115.75;;;26.42;53.54
5877;BME280;2964;42.144;24.730;2022-09-09T08:21:15;148071.28;;;26.24;53.53
5877;BME280;2964;42.144;24.730;2022-09-09T08:23:44;147960.75;;;25.79;55.04
5877;BME280;2964;42.144;24.730;2022-09-09T08:26:13;147991.25;;;25.92;55.62
5877;BME280;2964;42.144;24.730;2022-09-09T08:28:42;148150.09;;;26.56;54.16
5877;BME280;2964;42.144;24.730;2022-09-09T08:31:12;148329.38;;;27.28;53.84
5877;BME280;2964;42.144;24.730;2022-09-09T08:33:39;148661.38;;;28.62;48.39
5877;BME280;2964;42.144;24.730;2022-09-09T08:36:08;148711.00;;;28.82;46.40
5877;BME280;2964;42.144;24.730;2022-09-09T08:38:36;148452.72;;;27.78;50.31
5877;BME280;2964;42.144;24.730;2022-09-09T08:41:11;148672.84;;;28.67;48.60
5877;BME280;2964;42.144;24.730;2022-09-09T08:43:44;148488.38;;;27.92;48.87
5877;BME280;2964;42.144;24.730;2022-09-09T08:46:17;148195.88;;;26.74;49.30
5877;BME280;2964;42.144;24.730;2022-09-09T08:48:55;148506.13;;;28.00;50.37
5877;BME280;2964;42.144;24.730;2022-09-09T08:51:25;148483.25;;;27.90;48.97
5877;BME280;2964;42.144;24.730;2022-09-09T08:53:56;148063.69;;;26.21;53.46
5877;BME280;2964;42.144;24.730;2022-09-09T08:56:26;148328.06;;;27.28;52.01
5877;BME280;2964;42.144;24.730;2022-09-09T08:58:56;148473.03;;;27.86;49.22
5877;BME280;2964;42.144;24.730;2022-09-09T09:01:44;148155.16;;;26.58;51.57
5877;BME280;2964;42.144;24.730;2022-09-09T09:04:30;148856.16;;;29.41;46.94
5877;BME280;2964;42.144;24.730;2022-09-09T09:07:08;149346.66;;;31.39;42.79
5877;BME280;2964;42.144;24.730;2022-09-09T09:09:46;149677.00;;;32.72;39.07
5877;BME280;2964;42.144;24.730;2022-09-09T09:12:19;150047.19;;;34.20;35.85
5877;BME280;2964;42.144;24.730;2022-09-09T09:14:48;150613.19;;;36.48;32.89
5877;BME280;2964;42.144;24.730;2022-09-09T09:17:17;150487.91;;;35.98;31.88
5877;BME280;2964;42.144;24.730;2022-09-09T09:19:46;150068.91;;;34.29;33.31
5877;BME280;2964;42.144;24.730;2022-09-09T09:22:18;150285.97;;;35.16;33.53
5877;BME280;2964;42.144;24.730;2022-09-09T09:24:51;150925.28;;;37.73;30.40
5877;BME280;2964;42.144;24.730;2022-09-09T09:27:25;150280.88;;;35.14;31.15
5877;BME280;2964;42.144;24.730;2022-09-09T09:29:57;149862.06;;;33.46;35.53
5877;BME280;2964;42.144;24.730;2022-09-09T09:32:27;150457.25;;;35.85;31.71
5877;BME280;2964;42.144;24.730;2022-09-09T09:34:56;150416.34;;;35.69;31.43
5877;BME280;2964;42.144;24.730;2022-09-09T09:37:27;149558.34;;;32.24;36.65
5877;BME280;2964;42.144;24.730;2022-09-09T09:39:54;149896.47;;;33.60;35.31
5877;BME280;2964;42.144;24.730;2022-09-09T09:42:22;150140.34;;;34.58;33.89
5877;BME280;2964;42.144;24.730;2022-09-09T09:44:49;150439.34;;;35.78;31.99
5877;BME280;2964;42.144;24.730;2022-09-09T09:47:18;150044.59;;;34.19;34.69
5877;BME280;2964;42.144;24.730;2022-09-09T09:49:52;149532.88;;;32.13;38.62
5877;BME280;2964;42.144;24.730;2022-09-09T09:52:22;149933.53;;;33.75;34.12
5877;BME280;2964;42.144;24.730;2022-09-09T09:54:50;150323.06;;;35.31;33.11
5877;BME280;2964;42.144;24.730;2022-09-09T09:57:18;150565.91;;;36.29;30.94
5877;BME280;2964;42.144;24.730;2022-09-09T10:00:00;150462.34;;;35.87;31.82
5877;BME280;2964;42.144;24.730;2022-09-09T10:02:38;150392.03;;;35.59;31.84
5877;BME280;2964;42.144;24.730;2022-09-09T10:05:13;149982.03;;;33.94;34.55
5877;BME280;2964;42.144;24.730;2022-09-09T10:07:40;149353.06;;;31.41;38.24
5877;BME280;2964;42.144;24.730;2022-09-09T10:10:12;149022.97;;;30.08;41.51
5877;BME280;2964;42.144;24.730;2022-09-09T10:12:47;149109.63;;;30.43;42.05
5877;BME280;2964;42.144;24.730;2022-09-09T10:15:30;148751.75;;;28.99;44.19
5877;BME280;2964;42.144;24.730;2022-09-09T10:18:08;148583.72;;;28.31;46.07
5877;BME280;2964;42.144;24.730;2022-09-09T10:20:43;148661.38;;;28.62;46.75
5877;BME280;2964;42.144;24.730;2022-09-09T10:23:26;148653.78;;;28.59;46.01
5877;BME280;2964;42.144;24.730;2022-09-09T10:26:08;148699.59;;;28.78;46.23
5877;BME280;2964;42.144;24.730;2022-09-09T10:29:06;148529.03;;;28.09;48.51
5877;BME280;2964;42.144;24.730;2022-09-09T10:31:46;148508.72;;;28.01;48.71
5877;BME280;2964;42.144;24.730;2022-09-09T10:34:32;148446.31;;;27.76;49.43
5877;BME280;2964;42.144;24.730;2022-09-09T10:37:06;148380.22;;;27.49;50.40
5877;BME280;2964;42.144;24.730;2022-09-09T10:39:38;148328.06;;;27.28;50.99
5877;BME280;2964;42.144;24.730;2022-09-09T10:42:08;148208.56;;;26.80;50.87
5877;BME280;2964;42.144;24.730;2022-09-09T10:44:50;148371.31;;;27.45;51.54
5877;BME280;2964;42.144;24.730;2022-09-09T10:47:56;148321.69;;;27.25;50.95
5877;BME280;2964;42.144;24.730;2022-09-09T10:50:43;148297.56;;;27.15;51.56
5877;BME280;2964;42.144;24.730;2022-09-09T10:53:16;148312.78;;;27.22;51.27
5877;BME280;2964;42.144;24.730;2022-09-09T10:55:50;148214.94;;;26.82;52.44
5877;BME280;2964;42.144;24.730;2022-09-09T10:58:23;148190.75;;;26.72;52.51
5877;BME280;2964;42.144;24.730;2022-09-09T11:00:54;148269.59;;;27.04;51.17
5877;BME280;2964;42.144;24.730;2022-09-09T11:03:25;148270.84;;;27.05;52.35
5877;BME280;2964;42.144;24.730;2022-09-09T11:05:57;148199.66;;;26.76;52.65
5877;BME280;2964;42.144;24.730;2022-09-09T11:08:27;148204.75;;;26.78;52.27
5877;BME280;2964;42.144;24.730;2022-09-09T11:11:00;148228.91;;;26.88;52.81
5877;BME280;2964;42.144;24.730;2022-09-09T11:13:37;148254.31;;;26.98;52.07
5877;BME280;2964;42.144;24.730;2022-09-09T11:16:17;148214.94;;;26.82;51.95
5877;BME280;2964;42.144;24.730;2022-09-09T11:18:45;148221.28;;;26.85;52.72
5877;BME280;2964;42.144;24.730;2022-09-09T11:21:17;148277.19;;;27.07;52.63
5877;BME280;2964;42.144;24.730;2022-09-09T11:23:50;148363.69;;;27.42;51.53
5877;BME280;2964;42.144;24.730;2022-09-09T11:26:25;148287.41;;;27.11;51.67
5877;BME280;2964;42.144;24.730;2022-09-09T11:29:04;148289.91;;;27.12;52.15
5877;BME280;2964;42.144;24.730;2022-09-09T11:31:44;148358.59;;;27.40;51.65
5877;BME280;2964;42.144;24.730;2022-09-09T11:34:25;148368.75;;;27.44;52.44
5877;BME280;2964;42.144;24.730;2022-09-09T11:37:12;148404.38;;;27.59;50.86
5877;BME280;2964;42.144;24.730;2022-09-09T11:40:08;148432.34;;;27.70;51.52
5877;BME280;2964;42.144;24.730;2022-09-09T11:42:41;148465.44;;;27.83;50.68
5877;BME280;2964;42.144;24.730;2022-09-09T11:45:10;148474.34;;;27.87;50.04
5877;BME280;2964;42.144;24.730;2022-09-09T11:47:38;148456.53;;;27.80;50.22
5877;BME280;2964;42.144;24.730;2022-09-09T11:50:27;148414.53;;;27.63;50.05
5877;BME280;2964;42.144;24.730;2022-09-09T11:53:14;148478.13;;;27.88;49.97
5877;BME280;2964;42.144;24.730;2022-09-09T11:55:46;148511.28;;;28.02;50.02
5877;BME280;2964;42.144;24.730;2022-09-09T11:58:17;148549.41;;;28.17;50.41
5877;BME280;2964;42.144;24.730;2022-09-09T12:00:47;148609.19;;;28.41;49.53
5877;BME280;2964;42.144;24.730;2022-09-09T12:03:34;148546.84;;;28.16;49.86
5877;BME280;2964;42.144;24.730;2022-09-09T12:06:10;148618.09;;;28.45;49.39
5877;BME280;2964;42.144;24.730;2022-09-09T12:08:41;148683.03;;;28.71;48.50
5877;BME280;2964;42.144;24.730;2022-09-09T12:11:10;148611.75;;;28.42;48.11
5877;BME280;2964;42.144;24.730;2022-09-09T12:13:37;148526.50;;;28.08;48.80
5877;BME280;2964;42.144;24.730;2022-09-09T12:16:04;148495.97;;;27.96;49.29
5877;BME280;2964;42.144;24.730;2022-09-09T12:18:33;148590.13;;;28.34;48.98
5877;BME280;2964;42.144;24.730;2022-09-09T12:21:07;148609.19;;;28.41;49.23
5877;BME280;2964;42.144;24.730;2022-09-09T12:23:45;148602.84;;;28.39;49.30
5877;BME280;2964;42.144;24.730;2022-09-09T12:26:28;148573.56;;;28.27;50.15
5877;BME280;2964;42.144;24.730;2022-09-09T12:29:06;148563.41;;;28.23;49.65
5877;BME280;2964;42.144;24.730;2022-09-09T12:31:42;148579.94;;;28.29;50.13
5877;BME280;2964;42.144;24.730;2022-09-09T12:36:38;148669.03;;;28.65;51.28
5877;BME280;2964;42.144;24.730;2022-09-09T12:39:17;148669.03;;;28.65;51.98
5877;BME280;2964;42.144;24.730;2022-09-09T12:41:52;148711.00;;;28.82;51.01
5877;BME280;2964;42.144;24.730;2022-09-09T12:44:23;148722.50;;;28.87;51.39
5877;BME280;2964;42.144;24.730;2022-09-09T12:46:51;148725.00;;;28.88;51.16
5877;BME280;2964;42.144;24.730;2022-09-09T12:49:28;148686.84;;;28.73;50.46
5877;BME280;2964;42.144;24.730;2022-09-09T12:52:02;148718.66;;;28.85;51.14
5877;BME280;2964;42.144;24.730;2022-09-09T12:54:33;148719.91;;;28.86;51.02
5877;BME280;2964;42.144;24.730;2022-09-09T12:57:01;148740.31;;;28.94;51.00
5877;BME280;2964;42.144;24.730;2022-09-09T12:59:35;148760.66;;;29.02;50.54
5877;BME280;2964;42.144;24.730;2022-09-09T13:02:16;148753.00;;;28.99;49.62
5877;BME280;2964;42.144;24.730;2022-09-09T13:04:44;148745.41;;;28.96;50.41
5877;BME280;2964;42.144;24.730;2022-09-09T13:07:12;148781.03;;;29.11;50.06
5877;BME280;2964;42.144;24.730;2022-09-09T13:09:43;148811.59;;;29.23;50.48
5877;BME280;2964;42.144;24.730;2022-09-09T13:12:14;148793.78;;;29.16;49.48
5877;BME280;2964;42.144;24.730;2022-09-09T13:14:43;148801.44;;;29.19;49.13
5877;BME280;2964;42.144;24.730;2022-09-09T13:17:22;148778.47;;;29.10;49.11
5877;BME280;2964;42.144;24.730;2022-09-09T13:19:50;148753.00;;;28.99;49.08
5877;BME280;2964;42.144;24.730;2022-09-09T13:22:21;148758.13;;;29.01;49.66
5877;BME280;2964;42.144;24.730;2022-09-09T13:24:59;148791.25;;;29.15;49.13